Time;durP1;ratioP1;P1;durP2;ratioP2;P2;SDS_P1;SDS_P2;PMS_P1;PMS_P2;Temp;Humidity;BMP_temperature;BMP_pressure;BME280_temperature;BME280_humidity;BME280_pressure;Samples;Min_cycle;Max_cycle;Signal;HPM_P1;HPM_P2
2023/07/22 00:00:23;;;;;;;7.70;4.20;;;;;;;14.44;100.00;97322.66;5052576;28;20452;-72
2023/07/22 00:02:49;;;;;;;6.85;4.53;;;;;;;14.36;100.00;97325.88;5044160;28;20403;-71
2023/07/22 00:05:15;;;;;;;6.30;4.90;;;;;;;14.31;100.00;97330.16;5052263;28;20412;-71
2023/07/22 00:07:41;;;;;;;5.25;4.30;;;;;;;14.25;100.00;97327.81;5044287;28;20436;-71
2023/07/22 00:10:10;;;;;;;6.70;4.82;;;;;;;14.23;100.00;97327.28;5052495;28;20405;-71
2023/07/22 00:12:36;;;;;;;5.80;4.13;;;;;;;14.16;100.00;97327.59;5052192;28;20406;-71
2023/07/22 00:15:03;;;;;;;5.68;4.20;;;;;;;14.11;100.00;97321.50;5052095;28;20402;-71
2023/07/22 00:17:29;;;;;;;7.20;4.30;;;;;;;14.07;100.00;97321.25;5052373;28;20409;-72
2023/07/22 00:19:56;;;;;;;5.82;4.40;;;;;;;14.04;100.00;97324.47;5052115;28;20424;-71
2023/07/22 00:22:22;;;;;;;6.97;4.03;;;;;;;14.00;100.00;97328.72;5052144;28;20401;-71
2023/07/22 00:24:48;;;;;;;7.55;4.70;;;;;;;13.99;100.00;97321.03;5052129;28;20402;-72
2023/07/22 00:27:16;;;;;;;6.75;4.35;;;;;;;13.95;100.00;97323.44;5048391;28;20399;-72
2023/07/22 00:29:42;;;;;;;7.78;4.90;;;;;;;13.91;100.00;97319.72;5048005;28;20887;-72
2023/07/22 00:32:09;;;;;;;7.30;5.05;;;;;;;13.88;100.00;97322.94;5051736;28;20466;-72
2023/07/22 00:34:35;;;;;;;9.00;4.50;;;;;;;13.86;100.00;97317.09;5052057;28;20405;-72
2023/07/22 00:37:01;;;;;;;8.13;5.25;;;;;;;13.83;100.00;97326.41;5051670;28;20401;-72
2023/07/22 00:39:27;;;;;;;5.90;4.65;;;;;;;13.80;100.00;97324.31;5051826;28;20975;-72
2023/07/22 00:41:54;;;;;;;8.52;4.88;;;;;;;13.77;100.00;97324.84;5042363;28;20407;-72
2023/07/22 00:44:21;;;;;;;8.03;4.77;;;;;;;13.74;100.00;97320.09;5051833;28;20871;-71
2023/07/22 00:46:48;;;;;;;8.85;5.20;;;;;;;13.73;100.00;97325.69;5051503;28;20405;-72
2023/07/22 00:49:16;;;;;;;7.85;4.75;;;;;;;13.66;100.00;97325.16;5051792;28;20756;-72
2023/07/22 00:51:42;;;;;;;6.38;4.80;;;;;;;13.64;100.00;97316.66;5051700;28;20528;-72
2023/07/22 00:54:09;;;;;;;8.35;4.75;;;;;;;13.65;100.00;97320.91;5051496;28;20405;-72
2023/07/22 00:56:37;;;;;;;8.07;5.47;;;;;;;13.65;100.00;97321.72;5051389;28;20398;-72
2023/07/22 00:59:03;;;;;;;9.90;5.78;;;;;;;13.65;100.00;97320.91;5051434;28;20413;-72
2023/07/22 01:01:31;;;;;;;8.07;5.50;;;;;;;13.65;100.00;97310.28;5051417;28;20931;-72
2023/07/22 01:03:57;;;;;;;8.07;5.80;;;;;;;13.60;100.00;97310.31;5051343;28;20741;-72
2023/07/22 01:06:24;;;;;;;5.93;4.55;;;;;;;13.56;100.00;97310.84;5051409;28;20429;-72
2023/07/22 01:08:51;;;;;;;6.13;4.72;;;;;;;13.54;100.00;97309.50;5051466;28;20536;-72
2023/07/22 01:11:17;;;;;;;6.75;4.72;;;;;;;13.51;100.00;97313.53;5047159;28;20494;-72
2023/07/22 01:13:43;;;;;;;6.40;4.47;;;;;;;13.50;100.00;97311.13;5047252;28;20764;-72
2023/07/22 01:16:09;;;;;;;7.63;4.90;;;;;;;13.49;100.00;97306.88;5050929;28;20484;-72
2023/07/22 01:18:38;;;;;;;6.20;4.75;;;;;;;13.48;100.00;97305.28;5051090;28;20416;-71
2023/07/22 01:21:08;;;;;;;8.40;5.20;;;;;;;13.46;100.00;97308.19;5050980;28;20416;-72
2023/07/22 01:23:36;;;;;;;6.93;4.87;;;;;;;13.45;100.00;97301.31;5051127;28;20405;-72
2023/07/22 01:26:03;;;;;;;8.18;5.32;;;;;;;13.43;100.00;97292.81;5050720;28;20401;-71
2023/07/22 01:28:29;;;;;;;6.90;5.18;;;;;;;13.42;100.00;97291.22;5051033;28;20405;-72
2023/07/22 01:30:55;;;;;;;7.30;5.70;;;;;;;13.40;100.00;97290.69;5050925;28;20401;-72
2023/07/22 01:33:23;;;;;;;9.32;5.60;;;;;;;13.38;100.00;97294.69;5050316;28;22573;-72
2023/07/22 01:35:50;;;;;;;6.95;4.88;;;;;;;13.31;100.00;97289.63;5050575;28;20401;-72
2023/07/22 01:38:16;;;;;;;7.10;5.07;;;;;;;13.28;100.00;97284.09;5050912;28;20484;-72
2023/07/22 01:40:43;;;;;;;7.90;5.03;;;;;;;13.29;100.00;97289.13;5050728;28;20439;-72
2023/07/22 01:43:10;;;;;;;6.25;4.63;;;;;;;13.25;100.00;97282.75;5050740;28;20413;-72
2023/07/22 01:45:37;;;;;;;7.05;4.90;;;;;;;13.22;100.00;97282.50;5050593;28;20466;-72
2023/07/22 01:48:04;;;;;;;7.13;5.43;;;;;;;13.19;100.00;97283.84;5050613;28;20456;-72
2023/07/22 01:50:30;;;;;;;8.68;5.40;;;;;;;13.16;100.00;97289.69;5050552;28;20481;-72
2023/07/22 01:52:56;;;;;;;7.35;5.03;;;;;;;13.10;100.00;97283.56;5050181;28;20409;-72
2023/07/22 01:55:22;;;;;;;7.37;5.30;;;;;;;13.12;100.00;97286.75;5049646;28;20962;-72
2023/07/22 01:57:50;;;;;;;7.90;4.72;;;;;;;13.12;100.00;97283.28;5050577;28;20409;-72
2023/07/22 02:00:16;;;;;;;9.05;5.70;;;;;;;13.12;100.00;97285.94;5050483;28;20441;-72
2023/07/22 02:02:43;;;;;;;6.93;5.10;;;;;;;13.10;100.00;97285.41;5050400;28;20401;-71
2023/07/22 02:05:10;;;;;;;6.60;4.97;;;;;;;13.10;100.00;97282.75;5050156;28;20401;-71
2023/07/22 02:07:37;;;;;;;7.55;4.97;;;;;;;13.09;100.00;97289.13;5050452;28;20398;-71
2023/07/22 02:10:03;;;;;;;6.57;4.80;;;;;;;13.08;100.00;97282.25;5050279;28;20466;-72
2023/07/22 02:12:30;;;;;;;6.53;4.45;;;;;;;13.09;100.00;97286.47;5050227;28;20951;-72
2023/07/22 02:14:57;;;;;;;7.93;4.80;;;;;;;13.08;100.00;97282.25;5050089;28;20404;-71
2023/07/22 02:17:23;;;;;;;7.23;5.00;;;;;;;13.07;100.00;97283.31;5050310;28;20446;-72
2023/07/22 02:19:50;;;;;;;7.78;5.20;;;;;;;13.08;100.00;97290.22;5050172;28;20413;-72
2023/07/22 02:22:16;;;;;;;7.30;5.40;;;;;;;13.03;100.00;97293.66;5050130;28;20788;-71
2023/07/22 02:24:42;;;;;;;6.78;5.10;;;;;;;13.00;100.00;97291.56;5050165;28;20397;-72
2023/07/22 02:27:08;;;;;;;7.57;5.40;;;;;;;13.01;100.00;97295.78;5050043;28;20429;-71
2023/07/22 02:29:35;;;;;;;7.60;5.70;;;;;;;13.05;100.00;97293.41;5050344;28;20393;-72
2023/07/22 02:32:03;;;;;;;7.75;5.10;;;;;;;13.02;100.00;97292.06;5050100;28;20404;-72
2023/07/22 02:34:29;;;;;;;8.00;5.20;;;;;;;13.02;100.00;97297.38;5050087;28;20812;-71
2023/07/22 02:36:55;;;;;;;7.60;4.93;;;;;;;13.02;100.00;97291.28;5049837;28;20404;-71
2023/07/22 02:39:22;;;;;;;8.27;5.63;;;;;;;13.02;100.00;97291.28;5050013;28;20425;-71
2023/07/22 02:41:48;;;;;;;13.38;6.65;;;;;;;13.09;100.00;97289.13;5050093;28;20448;-71
2023/07/22 02:44:14;;;;;;;9.30;6.13;;;;;;;13.09;100.00;97297.09;5050150;28;20879;-71
2023/07/22 02:46:41;;;;;;;8.37;6.13;;;;;;;13.11;100.00;97292.31;5042583;28;20403;-72
2023/07/22 02:49:08;;;;;;;9.13;6.15;;;;;;;13.12;100.00;97292.06;5049309;28;20398;-72
2023/07/22 02:51:35;;;;;;;9.13;6.18;;;;;;;13.15;100.00;97296.88;5050200;28;20773;-72
2023/07/22 02:54:03;;;;;;;8.60;5.85;;;;;;;13.14;100.00;97289.16;5049684;28;20448;-72
2023/07/22 02:56:29;;;;;;;9.65;6.00;;;;;;;13.15;100.00;97296.88;5050043;28;20805;-72
2023/07/22 02:58:55;;;;;;;8.05;5.57;;;;;;;13.25;100.00;97289.94;5049825;28;20500;-71
2023/07/22 03:01:23;;;;;;;9.98;6.65;;;;;;;13.30;100.00;97289.94;5045109;28;20441;-71
2023/07/22 03:03:49;;;;;;;7.67;5.90;;;;;;;13.30;100.00;97284.63;5046954;28;20977;-72
2023/07/22 03:06:16;;;;;;;10.50;6.20;;;;;;;13.32;100.00;97285.13;5053640;28;20420;-72
2023/07/22 03:08:42;;;;;;;9.20;5.60;;;;;;;13.33;100.00;97282.19;5053660;28;20473;-72
2023/07/22 03:11:09;;;;;;;10.65;6.00;;;;;;;13.34;100.00;97281.13;5053451;28;20818;-72
2023/07/22 03:13:35;;;;;;;7.77;5.60;;;;;;;13.34;100.00;97281.13;5053584;28;20397;-72
2023/07/22 03:16:04;;;;;;;10.77;5.80;;;;;;;13.39;100.00;97283.75;5053301;28;20491;-72
2023/07/22 03:18:30;;;;;;;8.57;5.68;;;;;;;13.39;100.00;97293.59;5053405;28;20893;-72
2023/07/22 03:20:57;;;;;;;8.40;5.47;;;;;;;13.38;100.00;97284.81;5053167;28;20441;-72
2023/07/22 03:23:24;;;;;;;9.10;5.40;;;;;;;13.36;100.00;97280.88;5053382;28;20806;-72
2023/07/22 03:25:51;;;;;;;7.93;5.07;;;;;;;13.33;100.00;97284.84;5053008;28;20409;-72
2023/07/22 03:28:17;;;;;;;7.57;5.18;;;;;;;13.33;100.00;97284.06;5053307;28;20459;-71
2023/07/22 03:30:43;;;;;;;9.63;5.72;;;;;;;13.29;100.00;97283.81;5053139;28;20459;-72
2023/07/22 03:33:10;;;;;;;8.57;6.13;;;;;;;13.28;100.00;97284.88;5053132;28;20456;-71
2023/07/22 03:35:36;;;;;;;8.10;5.53;;;;;;;13.25;100.00;97280.09;5053046;28;20405;-72
2023/07/22 03:38:04;;;;;;;7.47;5.20;;;;;;;13.25;100.00;97279.28;5053012;28;20402;-71
2023/07/22 03:40:32;;;;;;;8.80;5.43;;;;;;;13.25;100.00;97279.28;5044582;28;20424;-71
2023/07/22 03:42:58;;;;;;;7.72;5.13;;;;;;;13.22;100.00;97285.16;5052855;28;20771;-71
2023/07/22 03:45:25;;;;;;;8.55;5.60;;;;;;;13.20;100.00;97281.97;5052845;28;20966;-71
2023/07/22 03:47:54;;;;;;;7.38;5.30;;;;;;;13.17;100.00;97284.09;5052825;28;21012;-71
2023/07/22 03:50:20;;;;;;;9.30;5.57;;;;;;;13.15;100.00;97285.44;5052783;28;20866;-72
2023/07/22 03:52:46;;;;;;;9.23;5.50;;;;;;;13.15;100.00;97285.44;5052763;28;20459;-72
2023/07/22 03:55:12;;;;;;;7.82;5.30;;;;;;;13.14;100.00;97282.00;5052507;28;20401;-71
2023/07/22 03:57:40;;;;;;;9.70;5.20;;;;;;;13.12;100.00;97284.09;5052778;28;20437;-72
2023/07/22 04:00:10;;;;;;;7.03;5.30;;;;;;;13.14;100.00;97289.97;5034700;28;20421;-72
2023/07/22 04:02:37;;;;;;;7.07;5.13;;;;;;;13.16;100.00;97282.50;5052555;28;20409;-71
2023/07/22 04:05:04;;;;;;;9.18;5.13;;;;;;;13.16;100.00;97285.16;5052537;28;20417;-71
2023/07/22 04:07:30;;;;;;;9.93;5.80;;;;;;;13.14;100.00;97292.63;5052581;28;20511;-72
2023/07/22 04:09:57;;;;;;;10.45;5.60;;;;;;;13.15;100.00;97296.88;5052068;28;20440;-71
2023/07/22 04:12:23;;;;;;;6.77;5.23;;;;;;;13.13;100.00;97279.59;5049681;28;20411;-71
2023/07/22 04:14:51;;;;;;;8.27;5.28;;;;;;;13.13;100.00;97274.28;5051803;28;20485;-71
2023/07/22 04:17:17;;;;;;;10.07;5.60;;;;;;;13.15;100.00;97288.91;5052173;28;20758;-71
2023/07/22 04:19:43;;;;;;;7.18;5.00;;;;;;;13.21;100.00;97284.38;5052118;28;20424;-71
2023/07/22 04:22:09;;;;;;;7.55;5.20;;;;;;;13.22;100.00;97287.81;5052018;28;20810;-71
2023/07/22 04:24:36;;;;;;;8.07;5.18;;;;;;;13.27;100.00;97280.63;5051298;28;20493;-71
2023/07/22 04:27:02;;;;;;;8.02;5.10;;;;;;;13.31;100.00;97275.53;5050249;28;20413;-71
2023/07/22 04:29:29;;;;;;;9.43;5.13;;;;;;;13.30;100.00;97273.97;5046374;28;20405;-71
2023/07/22 04:31:59;;;;;;;7.70;5.00;;;;;;;13.37;100.00;97274.50;5044093;28;20436;-71
2023/07/22 04:34:28;;;;;;;9.23;5.03;;;;;;;13.42;100.00;97280.56;5052454;28;20401;-71
2023/07/22 04:36:54;;;;;;;8.35;5.25;;;;;;;13.43;100.00;97276.84;5052160;28;20441;-71
2023/07/22 04:39:20;;;;;;;8.43;5.13;;;;;;;13.47;100.00;97285.06;5052224;28;20424;-71
2023/07/22 04:41:46;;;;;;;9.03;4.93;;;;;;;13.56;100.00;97278.13;5051254;28;21167;-71
2023/07/22 04:44:13;;;;;;;8.07;5.10;;;;;;;13.61;100.00;97280.75;5030842;28;20463;-71
2023/07/22 04:46:40;;;;;;;7.63;4.60;;;;;;;13.59;100.00;97280.25;5051124;28;20492;-71
2023/07/22 04:49:08;;;;;;;11.45;4.75;;;;;;;13.61;100.00;97272.00;5051266;28;20480;-71
2023/07/22 04:51:34;;;;;;;5.45;4.30;;;;;;;13.63;100.00;97277.81;5051111;28;20459;-71
2023/07/22 04:54:00;;;;;;;6.45;4.40;;;;;;;13.69;100.00;97277.53;5050954;28;20879;-71
2023/07/22 04:56:27;;;;;;;7.47;4.57;;;;;;;13.74;100.00;97290.03;5051038;28;20397;-71
2023/07/22 04:58:53;;;;;;;7.13;4.63;;;;;;;13.86;100.00;97282.50;5050132;28;20448;-71
2023/07/22 05:01:19;;;;;;;7.80;4.63;;;;;;;13.81;100.00;97290.53;5050638;28;20413;-71
2023/07/22 05:03:45;;;;;;;7.38;4.78;;;;;;;13.86;100.00;97293.16;5039385;28;20399;-71
2023/07/22 05:06:13;;;;;;;6.85;4.75;;;;;;;13.87;100.00;97292.88;5031329;28;20486;-71
2023/07/22 05:08:39;;;;;;;6.07;4.45;;;;;;;13.84;100.00;97287.31;5037500;28;20414;-71
2023/07/22 05:11:07;;;;;;;7.28;4.30;;;;;;;13.82;100.00;97286.81;5048583;28;20400;-71
2023/07/22 05:13:33;;;;;;;6.10;4.32;;;;;;;13.86;100.00;97293.16;5049167;28;20397;-71
2023/07/22 05:15:59;;;;;;;9.60;5.18;;;;;;;13.84;100.00;97285.44;5047593;28;20961;-72
2023/07/22 05:18:26;;;;;;;6.93;4.20;;;;;;;13.89;100.00;97292.63;5047571;28;20413;-72
2023/07/22 05:20:52;;;;;;;7.30;4.10;;;;;;;13.86;100.00;97293.16;5043513;28;20423;-73
2023/07/22 05:23:19;;;;;;;9.77;4.65;;;;;;;13.90;100.00;97296.88;5044735;28;20491;-73
2023/07/22 05:25:51;;;;;;;9.00;4.53;;;;;;;14.02;100.00;97300.00;5048554;28;20764;-73
2023/07/22 05:28:18;;;;;;;8.80;4.20;;;;;;;14.14;100.00;97302.31;5049793;28;20794;-72
2023/07/22 05:30:44;;;;;;;7.25;4.13;;;;;;;14.06;100.00;97302.91;5050071;28;20435;-75
2023/07/22 05:33:10;;;;;;;6.13;4.00;;;;;;;14.26;100.00;97297.47;5049958;28;20743;-71
2023/07/22 05:35:36;;;;;;;9.20;4.07;;;;;;;14.32;100.00;97297.13;5049103;28;20941;-72
2023/07/22 05:38:04;;;;;;;5.78;3.97;;;;;;;14.30;100.00;97304.59;5049378;28;20467;-72
2023/07/22 05:40:32;;;;;;;6.60;3.78;;;;;;;14.28;100.00;97304.06;5051556;28;20420;-72
2023/07/22 05:42:58;;;;;;;5.40;3.63;;;;;;;14.50;100.00;97301.06;5047809;28;20440;-71
2023/07/22 05:45:24;;;;;;;5.70;4.18;;;;;;;14.55;100.00;97303.66;5050071;28;20904;-71
2023/07/22 05:47:50;;;;;;;5.85;4.43;;;;;;;14.68;100.00;97304.88;5050890;28;20408;-71
2023/07/22 05:50:17;;;;;;;6.85;4.18;;;;;;;14.68;100.00;97300.34;5048776;28;20478;-71
2023/07/22 05:52:43;;;;;;;6.88;3.65;;;;;;;14.68;100.00;97307.56;5046257;28;20436;-70
2023/07/22 05:55:10;;;;;;;6.10;3.80;;;;;;;14.84;100.00;97298.38;5050450;28;20405;-70
2023/07/22 05:57:37;;;;;;;6.63;3.60;;;;;;;14.81;100.00;97304.25;5049243;28;20542;-70
2023/07/22 06:00:04;;;;;;;6.05;4.03;;;;;;;15.02;100.00;97313.66;5047030;28;20916;-70
2023/07/22 06:02:30;;;;;;;5.85;3.92;;;;;;;15.10;100.00;97326.38;5050601;28;20498;-70
2023/07/22 06:04:57;;;;;;;4.85;3.50;;;;;;;15.14;100.00;97331.16;5050537;28;20763;-70
2023/07/22 06:07:23;;;;;;;5.05;3.50;;;;;;;15.20;100.00;97338.81;5050799;28;20405;-70
2023/07/22 06:09:49;;;;;;;6.18;3.45;;;;;;;15.26;100.00;97339.56;5050671;28;20960;-70
2023/07/22 06:12:15;;;;;;;5.22;3.65;;;;;;;15.29;100.00;97344.31;5047497;28;20467;-70
2023/07/22 06:14:43;;;;;;;4.68;3.30;;;;;;;15.33;100.00;97340.84;5049986;28;20437;-71
2023/07/22 06:17:09;;;;;;;5.45;3.25;;;;;;;15.36;100.00;97342.13;5049716;28;20425;-72
2023/07/22 06:19:35;;;;;;;4.13;2.70;;;;;;;15.41;100.00;97342.84;5050144;28;20417;-72
2023/07/22 06:22:01;;;;;;;3.10;2.78;;;;;;;15.45;100.00;97345.78;5050058;28;20767;-73
2023/07/22 06:24:27;;;;;;;3.20;2.42;;;;;;;15.48;100.00;97350.56;5031096;28;20437;-73
2023/07/22 06:26:53;;;;;;;2.70;2.40;;;;;;;15.51;100.00;97344.63;5030104;28;20415;-74
2023/07/22 06:29:20;;;;;;;2.42;2.00;;;;;;;15.54;100.00;97346.78;5050183;28;20751;-73
2023/07/22 06:31:47;;;;;;;2.92;2.40;;;;;;;15.57;100.00;97351.53;5050414;28;20488;-73
2023/07/22 06:34:13;;;;;;;2.50;2.30;;;;;;;15.60;100.00;97353.63;5050065;28;20405;-72
2023/07/22 06:36:40;;;;;;;2.47;2.10;;;;;;;15.64;100.00;97353.84;5049641;28;20405;-73
2023/07/22 06:39:06;;;;;;;2.80;2.40;;;;;;;15.65;100.00;97356.25;5052609;28;20787;-72
2023/07/22 06:41:32;;;;;;;2.80;2.40;;;;;;;15.70;100.00;97360.75;5054487;28;20397;-73
2023/07/22 06:43:58;;;;;;;3.58;2.30;;;;;;;15.73;100.00;97347.63;5036412;28;20500;-73
2023/07/22 06:46:24;;;;;;;2.53;2.33;;;;;;;15.77;100.00;97359.31;5053823;28;20408;-73
2023/07/22 06:48:52;;;;;;;5.85;3.25;;;;;;;15.83;100.00;97354.72;5054301;28;20405;-73
2023/07/22 06:51:18;;;;;;;4.00;3.10;;;;;;;15.84;100.00;97357.09;5054023;28;20454;-73
2023/07/22 06:53:44;;;;;;;3.40;3.00;;;;;;;15.90;100.00;97343.69;5054072;28;20401;-73
2023/07/22 06:56:10;;;;;;;7.60;3.83;;;;;;;15.75;100.00;97358.00;5052880;28;20443;-73
2023/07/22 06:58:37;;;;;;;4.68;3.17;;;;;;;15.66;100.00;97351.69;5053643;28;20405;-73
2023/07/22 07:01:03;;;;;;;5.50;3.10;;;;;;;15.88;100.00;97355.44;5053632;28;20921;-75
2023/07/22 07:03:30;;;;;;;4.65;2.90;;;;;;;16.07;100.00;97352.81;5054250;28;20480;-72
2023/07/22 07:05:59;;;;;;;6.07;3.60;;;;;;;16.16;100.00;97359.09;5053316;28;20405;-72
2023/07/22 07:08:25;;;;;;;5.10;3.10;;;;;;;16.13;100.00;97358.88;5053526;28;20409;-73
2023/07/22 07:10:52;;;;;;;4.50;3.00;;;;;;;16.16;100.00;97361.00;5053346;28;20405;-72
2023/07/22 07:13:18;;;;;;;4.05;2.75;;;;;;;16.32;100.00;97362.34;5053529;28;20436;-72
2023/07/22 07:15:50;;;;;;;4.10;2.80;;;;;;;16.35;100.00;97361.78;5053140;28;20397;-72
2023/07/22 07:18:17;;;;;;;4.93;3.03;;;;;;;16.45;100.00;97356.31;5032248;28;20450;-72
2023/07/22 07:20:44;;;;;;;4.43;2.60;;;;;;;16.51;100.00;97355.16;5048017;28;20999;-73
2023/07/22 07:23:12;;;;;;;6.20;3.30;;;;;;;16.46;100.00;97349.88;5052989;28;20406;-73
2023/07/22 07:25:38;;;;;;;3.63;2.67;;;;;;;16.55;100.00;97355.34;5052073;28;20397;-73
2023/07/22 07:28:05;;;;;;;4.10;2.70;;;;;;;16.64;100.00;97359.78;5052873;28;20405;-73
2023/07/22 07:30:32;;;;;;;4.93;3.30;;;;;;;16.81;100.00;97361.16;5053154;28;20397;-73
2023/07/22 07:32:58;;;;;;;5.87;3.10;;;;;;;16.91;100.00;97350.31;5044878;28;20910;-73
2023/07/22 07:35:24;;;;;;;5.97;2.90;;;;;;;16.96;100.00;97353.69;5053162;28;20451;-73
2023/07/22 07:37:50;;;;;;;5.45;3.10;;;;;;;16.96;100.00;97359.03;5053132;28;20436;-73
2023/07/22 07:40:18;;;;;;;4.97;3.17;;;;;;;17.13;100.00;97363.84;5052977;28;20582;-73
2023/07/22 07:42:44;;;;;;;4.07;2.80;;;;;;;17.13;100.00;97357.69;5052851;28;20402;-73
2023/07/22 07:45:11;;;;;;;4.40;2.43;;;;;;;17.23;100.00;97350.28;5034608;28;20448;-73
2023/07/22 07:47:37;;;;;;;6.30;2.65;;;;;;;16.89;100.00;97349.78;5053084;28;20764;-73
2023/07/22 07:50:03;;;;;;;3.78;2.78;;;;;;;16.79;100.00;97349.94;5052026;28;20459;-73
2023/07/22 07:52:30;;;;;;;3.45;2.70;;;;;;;16.87;100.00;97347.41;5034790;28;20930;-73
2023/07/22 07:54:56;;;;;;;6.03;2.55;;;;;;;16.94;100.00;97350.50;5052402;28;20420;-73
2023/07/22 07:57:23;;;;;;;6.05;2.80;;;;;;;16.67;100.00;97347.72;5052761;28;20401;-72
2023/07/22 07:59:50;;;;;;;6.53;2.90;;;;;;;16.78;100.00;97348.34;5052670;28;20413;-73
2023/07/22 08:02:16;;;;;;;6.38;2.80;;;;;;;16.98;100.00;97346.16;5052660;28;20863;-73
2023/07/22 08:04:42;;;;;;;3.33;2.80;;;;;;;17.06;100.00;97343.91;5052700;28;20408;-73
2023/07/22 08:07:08;;;;;;;5.38;2.92;;;;;;;17.21;100.00;97339.09;5052305;28;20809;-73
2023/07/22 08:09:34;;;;;;;3.30;2.45;;;;;;;17.50;100.00;97346.06;5052683;28;20401;-73
2023/07/22 08:12:02;;;;;;;3.45;2.42;;;;;;;17.53;100.00;97340.91;5052339;28;20728;-73
2023/07/22 08:14:30;;;;;;;4.82;2.50;;;;;;;17.51;100.00;97339.63;5045350;28;21367;-76
2023/07/22 08:16:56;;;;;;;4.47;2.50;;;;;;;17.77;100.00;97336.19;5047458;28;20845;-75
2023/07/22 08:19:22;;;;;;;4.35;2.55;;;;;;;17.88;100.00;97336.78;5051518;28;20791;-75
2023/07/22 08:21:48;;;;;;;3.72;2.35;;;;;;;17.98;100.00;97333.88;5047606;28;20427;-75
2023/07/22 08:24:15;;;;;;;2.83;2.15;;;;;;;18.01;100.00;97332.50;5059358;28;20492;-79
2023/07/22 08:26:41;;;;;;;3.03;1.98;;;;;;;18.07;100.00;97333.97;5058974;28;20441;-80
2023/07/22 08:29:07;;;;;;;4.28;2.30;;;;;;;18.38;100.00;97336.78;5054873;28;20775;-79
2023/07/22 08:31:43;;;;;;;3.78;2.10;;;;;;;18.55;100.00;97332.38;5055844;28;20520;-79
2023/07/22 08:34:15;;;;;;;2.70;2.03;;;;;;;18.70;100.00;97333.94;5039539;28;20451;-78
2023/07/22 08:36:42;;;;;;;3.92;1.95;;;;;;;18.87;100.00;97335.91;5035037;28;20424;-79
2023/07/22 08:39:08;;;;;;;3.70;1.83;;;;;;;19.06;100.00;97330.38;5055977;28;20725;-79
2023/07/22 08:41:34;;;;;;;3.28;1.98;;;;;;;19.39;100.00;97329.00;5052635;28;20416;-79
2023/07/22 08:44:01;;;;;;;2.45;1.90;;;;;;;19.32;100.00;97329.41;5063286;28;20404;-78
2023/07/22 08:46:31;;;;;;;2.35;1.70;;;;;;;19.64;100.00;97327.53;5056866;28;20409;-78
2023/07/22 08:49:00;;;;;;;3.00;1.85;;;;;;;19.81;100.00;97318.72;5051144;28;20573;-79
2023/07/22 08:51:30;;;;;;;2.67;1.70;;;;;;;20.05;100.00;97327.16;5059508;28;20728;-79
2023/07/22 08:53:57;;;;;;;4.10;1.80;;;;;;;20.30;100.00;97321.03;5051417;28;20446;-80
2023/07/22 08:56:25;;;;;;;3.00;1.67;;;;;;;20.60;100.00;97319.31;5050723;28;20402;-79
2023/07/22 08:58:52;;;;;;;3.70;1.83;;;;;;;20.99;100.00;97318.34;5057124;28;20501;-80
2023/07/22 09:01:21;;;;;;;2.38;1.70;;;;;;;21.09;100.00;97325.28;5057854;28;20449;-79
2023/07/22 09:03:51;;;;;;;2.17;1.67;;;;;;;20.99;100.00;97328.31;5053652;28;20891;-80
2023/07/22 09:06:19;;;;;;;2.35;1.75;;;;;;;20.93;100.00;97332.28;5052463;28;20402;-78
2023/07/22 09:08:45;;;;;;;2.88;1.77;;;;;;;20.80;100.00;97334.03;5053152;28;20900;-79
2023/07/22 09:11:12;;;;;;;2.90;1.60;;;;;;;20.77;100.00;97323.91;5052074;28;20402;-80
2023/07/22 09:13:41;;;;;;;2.10;1.60;;;;;;;20.82;100.00;97334.53;5051527;28;20489;-80
2023/07/22 09:16:10;;;;;;;2.33;1.80;;;;;;;20.96;100.00;97331.66;5052477;28;20402;-80
2023/07/22 09:18:36;;;;;;;1.95;1.48;;;;;;;20.94;100.00;97329.28;5049496;28;20425;-78
2023/07/22 09:21:03;;;;;;;3.00;1.90;;;;;;;21.02;100.00;97325.78;5056260;28;20437;-80
2023/07/22 09:23:35;;;;;;;2.15;1.70;;;;;;;21.04;100.00;97330.84;5057492;28;20914;-80
2023/07/22 09:26:12;;;;;;;2.42;1.60;;;;;;;21.05;100.00;97327.06;5061551;28;20484;-79
2023/07/22 09:28:49;;;;;;;2.20;1.58;;;;;;;21.12;100.00;97330.03;5056251;28;20553;-78
2023/07/22 09:31:15;;;;;;;2.88;1.70;;;;;;;21.11;100.00;97337.31;5050602;28;20488;-79
2023/07/22 09:33:42;;;;;;;2.38;1.70;;;;;;;21.18;100.00;97328.78;5052267;28;20405;-80
2023/07/22 09:36:11;;;;;;;1.73;1.58;;;;;;;21.28;100.00;97327.63;5055562;28;20433;-78
2023/07/22 09:38:38;;;;;;;1.60;1.40;;;;;;;21.27;100.00;97332.25;5052838;28;20414;-78
2023/07/22 09:41:04;;;;;;;3.13;1.60;;;;;;;21.25;100.00;97331.78;5054098;28;20445;-80
2023/07/22 09:43:31;;;;;;;2.25;1.70;;;;;;;21.39;100.00;97335.06;5054473;28;20508;-79
2023/07/22 09:46:07;;;;;;;3.28;1.77;;;;;;;21.67;93.32;97321.16;5054074;28;20455;-74
2023/07/22 09:48:40;;;;;;;3.27;1.80;;;;;;;21.29;81.26;97326.53;5045771;28;20398;-70
2023/07/22 09:51:11;;;;;;;2.25;1.70;;;;;;;21.19;100.00;97323.09;5044832;28;20397;-69
2023/07/22 09:53:43;;;;;;;2.15;1.63;;;;;;;21.04;100.00;97320.09;5045539;28;20495;-69
2023/07/22 09:56:09;;;;;;;2.17;1.60;;;;;;;20.88;100.00;97319.00;5048641;28;20490;-69
2023/07/22 09:58:36;;;;;;;3.55;1.90;;;;;;;20.85;98.05;97315.03;5047345;28;20800;-69
2023/07/22 10:01:03;;;;;;;2.28;1.70;;;;;;;20.89;83.23;97313.31;5049976;28;20504;-69
2023/07/22 10:03:31;;;;;;;3.75;1.55;;;;;;;20.91;95.99;97316.44;5050521;28;20906;-69
2023/07/22 10:06:04;;;;;;;5.78;1.60;;;;;;;21.01;91.68;97316.13;5049830;28;20492;-68
2023/07/22 10:08:33;;;;;;;2.50;1.70;;;;;;;21.26;98.39;97316.41;5043119;28;20393;-68
2023/07/22 10:11:03;;;;;;;3.22;1.75;;;;;;;21.28;79.87;97314.97;5052354;28;20389;-68
2023/07/22 10:13:29;;;;;;;2.70;1.60;;;;;;;21.28;80.67;97309.56;5051201;28;20405;-68
2023/07/22 10:15:55;;;;;;;2.40;1.73;;;;;;;21.19;92.62;97317.72;5051246;28;20492;-68
2023/07/22 10:18:23;;;;;;;1.70;1.50;;;;;;;21.24;100.00;97320.22;5051837;28;20470;-68
2023/07/22 10:20:49;;;;;;;1.90;1.50;;;;;;;21.47;90.45;97310.00;5041479;28;20415;-68
2023/07/22 10:23:15;;;;;;;2.57;1.77;;;;;;;21.44;79.76;97307.16;5048312;28;20393;-67
2023/07/22 10:25:43;;;;;;;6.82;1.80;;;;;;;21.53;91.92;97307.91;5041702;28;20805;-67
2023/07/22 10:28:12;;;;;;;3.72;1.60;;;;;;;21.51;89.50;97304.75;5048635;28;20409;-67
2023/07/22 10:30:38;;;;;;;2.50;1.73;;;;;;;21.74;98.19;97306.06;5048953;28;20394;-68
2023/07/22 10:33:04;;;;;;;2.13;1.40;;;;;;;22.22;100.00;97304.88;5050157;28;20406;-68
2023/07/22 10:36:00;;;;;;;2.38;1.60;;;;;;;22.98;100.00;97297.25;5050174;28;20567;-68
2023/07/22 10:38:26;;;;;;;3.05;1.88;;;;;;;23.30;65.91;97276.75;5050075;28;20459;-68
2023/07/22 10:40:54;;;;;;;3.08;1.67;;;;;;;23.42;61.81;97292.94;5049941;28;20427;-68
2023/07/22 10:43:25;;;;;;;4.22;1.70;;;;;;;24.24;72.09;97288.22;5050302;28;20897;-68
2023/07/22 10:45:53;;;;;;;2.85;1.40;;;;;;;24.77;69.86;97282.75;5042139;28;20492;-68
2023/07/22 10:48:20;;;;;;;2.53;1.45;;;;;;;25.04;68.23;97276.53;5037803;28;20404;-68
2023/07/22 10:50:48;;;;;;;1.80;1.47;;;;;;;25.42;78.63;97282.16;5031626;28;20391;-70
2023/07/22 10:53:27;;;;;;;2.83;1.40;;;;;;;25.93;78.15;97282.25;5046630;28;20492;-69
2023/07/22 10:56:14;;;;;;;2.25;1.38;;;;;;;25.89;80.52;97278.66;5049538;28;20719;-68
2023/07/22 10:58:59;;;;;;;3.55;1.92;;;;;;;25.69;72.26;97277.03;5048814;28;20402;-68
2023/07/22 11:01:32;;;;;;;2.30;1.48;;;;;;;25.56;59.96;97279.00;5044990;28;20481;-68
2023/07/22 11:04:24;;;;;;;1.95;1.38;;;;;;;25.19;68.68;97274.97;5044799;28;20406;-68
2023/07/22 11:06:55;;;;;;;2.95;1.50;;;;;;;24.88;63.71;97281.91;5046494;28;20400;-68
2023/07/22 11:09:42;;;;;;;4.10;1.67;;;;;;;24.05;64.16;97292.63;5049960;28;20807;-68
2023/07/22 11:12:11;;;;;;;3.10;1.50;;;;;;;23.54;75.26;97287.56;5050024;28;20394;-68
2023/07/22 11:14:44;;;;;;;1.92;1.42;;;;;;;23.18;85.32;97287.50;5041971;28;20397;-68
2023/07/22 11:17:11;;;;;;;3.03;1.60;;;;;;;22.75;80.56;97275.25;5049745;28;20480;-68
2023/07/22 11:19:37;;;;;;;3.38;1.73;;;;;;;22.43;75.88;97275.97;5049627;28;21215;-69
2023/07/22 11:22:05;;;;;;;2.78;1.80;;;;;;;22.06;69.80;97268.81;5049079;28;20500;-68
2023/07/22 11:24:37;;;;;;;4.63;1.80;;;;;;;22.04;85.74;97271.03;5049430;28;20416;-68
2023/07/22 11:27:05;;;;;;;2.35;1.73;;;;;;;21.85;100.00;97269.56;5050190;28;20498;-69